sensor_id;sensor_type;location;lat;lon;timestamp;temperature;humidity
66013;DHT22;52783;50.502;8.190;2023-01-25T00:01:51;1.00;99.90
66013;DHT22;52783;50.502;8.190;2023-01-25T00:04:21;0.90;99.90
66013;DHT22;52783;50.502;8.190;2023-01-25T00:06:47;0.90;99.90
66013;DHT22;52783;50.502;8.190;2023-01-25T00:09:14;0.90;99.90
66013;DHT22;52783;50.502;8.190;2023-01-25T00:11:40;0.90;99.90
66013;DHT22;52783;50.502;8.190;2023-01-25T00:14:12;1.00;99.90
66013;DHT22;52783;50.502;8.190;2023-01-25T00:16:38;1.20;99.90
66013;DHT22;52783;50.502;8.190;2023-01-25T00:19:05;1.20;99.90
66013;DHT22;52783;50.502;8.190;2023-01-25T00:21:31;1.20;99.90
66013;DHT22;52783;50.502;8.190;2023-01-25T00:23:58;0.90;99.90
66013;DHT22;52783;50.502;8.190;2023-01-25T00:26:23;0.80;99.90
66013;DHT22;52783;50.502;8.190;2023-01-25T00:28:52;1.00;99.90
66013;DHT22;52783;50.502;8.190;2023-01-25T00:39:22;1.00;99.90
66013;DHT22;52783;50.502;8.190;2023-01-25T00:41:48;1.10;99.90
66013;DHT22;52783;50.502;8.190;2023-01-25T00:44:13;1.10;99.90
66013;DHT22;52783;50.502;8.190;2023-01-25T00:46:39;1.30;99.90
66013;DHT22;52783;50.502;8.190;2023-01-25T00:49:04;1.30;99.90
66013;DHT22;52783;50.502;8.190;2023-01-25T00:51:30;1.10;99.90
66013;DHT22;52783;50.502;8.190;2023-01-25T00:53:55;1.10;99.90
66013;DHT22;52783;50.502;8.190;2023-01-25T00:56:21;1.00;99.90
66013;DHT22;52783;50.502;8.190;2023-01-25T00:58:47;1.00;99.90
66013;DHT22;52783;50.502;8.190;2023-01-25T01:01:12;0.90;99.90
66013;DHT22;52783;50.502;8.190;2023-01-25T01:03:38;1.00;99.90
66013;DHT22;52783;50.502;8.190;2023-01-25T01:06:07;1.10;99.90
66013;DHT22;52783;50.502;8.190;2023-01-25T01:08:34;0.90;99.90
66013;DHT22;52783;50.502;8.190;2023-01-25T01:11:03;0.90;99.90
66013;DHT22;52783;50.502;8.190;2023-01-25T01:13:30;1.00;99.90
66013;DHT22;52783;50.502;8.190;2023-01-25T01:15:55;0.80;99.90
66013;DHT22;52783;50.502;8.190;2023-01-25T01:18:21;0.90;99.90
66013;DHT22;52783;50.502;8.190;2023-01-25T01:20:51;0.90;99.90
66013;DHT22;52783;50.502;8.190;2023-01-25T01:23:18;0.90;99.90
66013;DHT22;52783;50.502;8.190;2023-01-25T01:25:43;1.00;99.90
66013;DHT22;52783;50.502;8.190;2023-01-25T01:28:09;1.00;99.90
66013;DHT22;52783;50.502;8.190;2023-01-25T01:30:35;0.90;99.90
66013;DHT22;52783;50.502;8.190;2023-01-25T01:33:01;1.00;99.90
66013;DHT22;52783;50.502;8.190;2023-01-25T01:35:28;0.90;99.90
66013;DHT22;52783;50.502;8.190;2023-01-25T01:37:54;1.00;99.90
66013;DHT22;52783;50.502;8.190;2023-01-25T01:40:19;0.90;99.90
66013;DHT22;52783;50.502;8.190;2023-01-25T01:42:57;0.80;99.90
66013;DHT22;52783;50.502;8.190;2023-01-25T01:50:39;1.00;99.90
66013;DHT22;52783;50.502;8.190;2023-01-25T01:53:06;0.90;99.90
66013;DHT22;52783;50.502;8.190;2023-01-25T01:55:31;0.90;99.90
66013;DHT22;52783;50.502;8.190;2023-01-25T01:57:58;0.90;99.90
66013;DHT22;52783;50.502;8.190;2023-01-25T02:00:27;0.80;99.90
66013;DHT22;52783;50.502;8.190;2023-01-25T02:02:55;0.90;99.90
66013;DHT22;52783;50.502;8.190;2023-01-25T02:05:26;0.90;99.90
66013;DHT22;52783;50.502;8.190;2023-01-25T02:07:53;1.00;99.90
66013;DHT22;52783;50.502;8.190;2023-01-25T02:10:20;1.00;99.90
66013;DHT22;52783;50.502;8.190;2023-01-25T02:12:47;1.00;99.90
66013;DHT22;52783;50.502;8.190;2023-01-25T02:15:12;0.90;99.90
66013;DHT22;52783;50.502;8.190;2023-01-25T02:17:40;0.80;99.90
66013;DHT22;52783;50.502;8.190;2023-01-25T02:22:58;0.90;99.90
66013;DHT22;52783;50.502;8.190;2023-01-25T02:25:24;0.90;99.90
66013;DHT22;52783;50.502;8.190;2023-01-25T02:27:54;0.90;99.90
66013;DHT22;52783;50.502;8.190;2023-01-25T02:30:21;0.90;99.90
66013;DHT22;52783;50.502;8.190;2023-01-25T02:32:47;0.80;99.90
66013;DHT22;52783;50.502;8.190;2023-01-25T02:35:21;0.90;99.90
66013;DHT22;52783;50.502;8.190;2023-01-25T02:37:48;0.70;99.90
66013;DHT22;52783;50.502;8.190;2023-01-25T02:40:14;0.70;99.90
66013;DHT22;52783;50.502;8.190;2023-01-25T02:42:43;0.60;99.90
66013;DHT22;52783;50.502;8.190;2023-01-25T02:45:13;0.60;99.90
66013;DHT22;52783;50.502;8.190;2023-01-25T02:47:40;0.80;99.90
66013;DHT22;52783;50.502;8.190;2023-01-25T02:50:05;0.80;99.90
66013;DHT22;52783;50.502;8.190;2023-01-25T02:52:31;0.90;99.90
66013;DHT22;52783;50.502;8.190;2023-01-25T02:54:57;0.90;99.90
66013;DHT22;52783;50.502;8.190;2023-01-25T02:57:22;0.90;99.90
66013;DHT22;52783;50.502;8.190;2023-01-25T02:59:48;0.90;99.90
66013;DHT22;52783;50.502;8.190;2023-01-25T03:02:13;0.80;99.90
66013;DHT22;52783;50.502;8.190;2023-01-25T03:04:39;0.90;99.90
66013;DHT22;52783;50.502;8.190;2023-01-25T03:07:04;0.90;99.90
66013;DHT22;52783;50.502;8.190;2023-01-25T03:09:30;0.90;99.90
66013;DHT22;52783;50.502;8.190;2023-01-25T03:11:56;0.60;99.90
66013;DHT22;52783;50.502;8.190;2023-01-25T03:14:21;0.70;99.90
66013;DHT22;52783;50.502;8.190;2023-01-25T03:16:47;0.60;99.90
66013;DHT22;52783;50.502;8.190;2023-01-25T03:19:13;0.80;99.90
66013;DHT22;52783;50.502;8.190;2023-01-25T03:21:39;0.70;99.90
66013;DHT22;52783;50.502;8.190;2023-01-25T03:24:05;0.70;99.90
66013;DHT22;52783;50.502;8.190;2023-01-25T03:26:31;0.70;99.90
66013;DHT22;52783;50.502;8.190;2023-01-25T03:29:16;0.70;99.90
66013;DHT22;52783;50.502;8.190;2023-01-25T03:31:42;0.70;99.90
66013;DHT22;52783;50.502;8.190;2023-01-25T03:34:07;0.70;99.90
66013;DHT22;52783;50.502;8.190;2023-01-25T03:36:33;0.70;99.90
66013;DHT22;52783;50.502;8.190;2023-01-25T03:38:58;0.70;99.90
66013;DHT22;52783;50.502;8.190;2023-01-25T03:41:24;0.90;99.90
66013;DHT22;52783;50.502;8.190;2023-01-25T03:43:49;0.90;99.90
66013;DHT22;52783;50.502;8.190;2023-01-25T03:46:15;0.80;99.90
66013;DHT22;52783;50.502;8.190;2023-01-25T03:48:40;0.90;99.90
66013;DHT22;52783;50.502;8.190;2023-01-25T03:51:06;0.80;99.90
66013;DHT22;52783;50.502;8.190;2023-01-25T03:53:31;0.60;99.90
66013;DHT22;52783;50.502;8.190;2023-01-25T03:56:09;0.70;99.90
66013;DHT22;52783;50.502;8.190;2023-01-25T03:58:38;0.80;99.90
66013;DHT22;52783;50.502;8.190;2023-01-25T04:01:05;0.90;99.90
66013;DHT22;52783;50.502;8.190;2023-01-25T04:03:32;0.90;99.90
66013;DHT22;52783;50.502;8.190;2023-01-25T04:05:58;0.70;99.90
66013;DHT22;52783;50.502;8.190;2023-01-25T04:08:24;0.70;99.90
66013;DHT22;52783;50.502;8.190;2023-01-25T04:10:51;0.80;99.90
66013;DHT22;52783;50.502;8.190;2023-01-25T04:13:19;0.80;99.90
66013;DHT22;52783;50.502;8.190;2023-01-25T04:15:44;0.70;99.90
66013;DHT22;52783;50.502;8.190;2023-01-25T04:18:10;0.50;99.90
66013;DHT22;52783;50.502;8.190;2023-01-25T04:20:35;0.50;99.90
66013;DHT22;52783;50.502;8.190;2023-01-25T04:23:01;0.50;99.90
66013;DHT22;52783;50.502;8.190;2023-01-25T04:25:26;0.50;99.90
66013;DHT22;52783;50.502;8.190;2023-01-25T04:27:52;0.50;99.90
66013;DHT22;52783;50.502;8.190;2023-01-25T04:30:19;0.60;99.90
66013;DHT22;52783;50.502;8.190;2023-01-25T04:32:45;0.60;99.90
66013;DHT22;52783;50.502;8.190;2023-01-25T04:35:11;0.60;99.90
66013;DHT22;52783;50.502;8.190;2023-01-25T04:37:37;0.70;99.90
66013;DHT22;52783;50.502;8.190;2023-01-25T04:40:03;0.60;99.90
66013;DHT22;52783;50.502;8.190;2023-01-25T04:42:29;0.50;99.90
66013;DHT22;52783;50.502;8.190;2023-01-25T04:44:54;0.70;99.90
66013;DHT22;52783;50.502;8.190;2023-01-25T04:47:20;0.70;99.90
66013;DHT22;52783;50.502;8.190;2023-01-25T04:49:47;0.60;99.90
66013;DHT22;52783;50.502;8.190;2023-01-25T04:52:12;0.50;99.90
66013;DHT22;52783;50.502;8.190;2023-01-25T04:54:38;0.40;99.90
66013;DHT22;52783;50.502;8.190;2023-01-25T04:57:03;0.40;99.90
66013;DHT22;52783;50.502;8.190;2023-01-25T04:59:29;0.40;99.90
66013;DHT22;52783;50.502;8.190;2023-01-25T05:01:54;0.40;99.90
66013;DHT22;52783;50.502;8.190;2023-01-25T05:04:20;0.40;99.90
66013;DHT22;52783;50.502;8.190;2023-01-25T05:06:45;0.60;99.90
66013;DHT22;52783;50.502;8.190;2023-01-25T05:09:11;0.70;99.90
66013;DHT22;52783;50.502;8.190;2023-01-25T05:11:36;0.80;99.90
66013;DHT22;52783;50.502;8.190;2023-01-25T05:14:02;0.80;99.90
66013;DHT22;52783;50.502;8.190;2023-01-25T05:16:28;0.90;99.90
66013;DHT22;52783;50.502;8.190;2023-01-25T05:18:54;0.90;99.90
66013;DHT22;52783;50.502;8.190;2023-01-25T05:21:20;1.00;99.90
66013;DHT22;52783;50.502;8.190;2023-01-25T05:24:04;1.10;99.90
66013;DHT22;52783;50.502;8.190;2023-01-25T05:26:30;0.90;99.90
66013;DHT22;52783;50.502;8.190;2023-01-25T05:29:14;0.90;99.90
66013;DHT22;52783;50.502;8.190;2023-01-25T05:31:39;1.00;99.90
66013;DHT22;52783;50.502;8.190;2023-01-25T05:34:05;0.90;99.90
66013;DHT22;52783;50.502;8.190;2023-01-25T05:36:31;1.00;99.90
66013;DHT22;52783;50.502;8.190;2023-01-25T05:38:56;0.90;99.90
66013;DHT22;52783;50.502;8.190;2023-01-25T05:41:22;0.80;99.90
66013;DHT22;52783;50.502;8.190;2023-01-25T05:43:48;0.80;99.90
66013;DHT22;52783;50.502;8.190;2023-01-25T05:46:13;0.80;99.90
66013;DHT22;52783;50.502;8.190;2023-01-25T05:48:39;0.80;99.90
66013;DHT22;52783;50.502;8.190;2023-01-25T05:51:05;0.60;99.90
66013;DHT22;52783;50.502;8.190;2023-01-25T05:53:31;0.60;99.90
66013;DHT22;52783;50.502;8.190;2023-01-25T05:56:03;0.50;99.90
66013;DHT22;52783;50.502;8.190;2023-01-25T05:58:29;0.50;99.90
66013;DHT22;52783;50.502;8.190;2023-01-25T06:00:55;0.30;99.90
66013;DHT22;52783;50.502;8.190;2023-01-25T06:03:20;0.40;99.90
66013;DHT22;52783;50.502;8.190;2023-01-25T06:05:46;0.50;99.90
66013;DHT22;52783;50.502;8.190;2023-01-25T06:08:11;0.60;99.90
66013;DHT22;52783;50.502;8.190;2023-01-25T06:10:37;0.60;99.90
66013;DHT22;52783;50.502;8.190;2023-01-25T06:13:02;0.50;99.90
66013;DHT22;52783;50.502;8.190;2023-01-25T06:15:29;0.50;99.90
66013;DHT22;52783;50.502;8.190;2023-01-25T06:17:55;0.60;99.90
66013;DHT22;52783;50.502;8.190;2023-01-25T06:20:21;0.50;99.90
66013;DHT22;52783;50.502;8.190;2023-01-25T06:22:50;0.50;99.90
66013;DHT22;52783;50.502;8.190;2023-01-25T06:25:17;0.60;99.90
66013;DHT22;52783;50.502;8.190;2023-01-25T06:27:42;0.60;99.90
66013;DHT22;52783;50.502;8.190;2023-01-25T06:30:08;0.70;99.90
66013;DHT22;52783;50.502;8.190;2023-01-25T06:32:34;0.60;99.90
66013;DHT22;52783;50.502;8.190;2023-01-25T06:35:00;0.40;99.90
66013;DHT22;52783;50.502;8.190;2023-01-25T06:37:25;0.30;99.90
66013;DHT22;52783;50.502;8.190;2023-01-25T06:39:51;0.20;99.90
66013;DHT22;52783;50.502;8.190;2023-01-25T06:42:17;0.20;99.90
66013;DHT22;52783;50.502;8.190;2023-01-25T06:44:43;0.10;99.90
66013;DHT22;52783;50.502;8.190;2023-01-25T06:47:08;0.30;99.90
66013;DHT22;52783;50.502;8.190;2023-01-25T06:49:34;0.40;99.90
66013;DHT22;52783;50.502;8.190;2023-01-25T06:52:01;0.30;99.90
66013;DHT22;52783;50.502;8.190;2023-01-25T06:54:27;0.30;99.90
66013;DHT22;52783;50.502;8.190;2023-01-25T06:56:52;0.40;99.90
66013;DHT22;52783;50.502;8.190;2023-01-25T06:59:18;0.30;99.90
66013;DHT22;52783;50.502;8.190;2023-01-25T07:01:43;0.40;99.90
66013;DHT22;52783;50.502;8.190;2023-01-25T07:04:10;0.40;99.90
66013;DHT22;52783;50.502;8.190;2023-01-25T07:06:39;0.40;99.90
66013;DHT22;52783;50.502;8.190;2023-01-25T07:09:06;0.10;99.90
66013;DHT22;52783;50.502;8.190;2023-01-25T07:11:32;0.30;99.90
66013;DHT22;52783;50.502;8.190;2023-01-25T07:13:58;0.30;99.90
66013;DHT22;52783;50.502;8.190;2023-01-25T07:16:24;0.30;99.90
66013;DHT22;52783;50.502;8.190;2023-01-25T07:18:50;0.20;99.90
66013;DHT22;52783;50.502;8.190;2023-01-25T07:21:20;0.20;99.90
66013;DHT22;52783;50.502;8.190;2023-01-25T07:23:47;0.30;99.90
66013;DHT22;52783;50.502;8.190;2023-01-25T07:26:21;0.30;99.90
66013;DHT22;52783;50.502;8.190;2023-01-25T07:28:48;0.30;99.90
66013;DHT22;52783;50.502;8.190;2023-01-25T07:31:15;0.00;99.90
66013;DHT22;52783;50.502;8.190;2023-01-25T07:33:41;0.10;99.90
66013;DHT22;52783;50.502;8.190;2023-01-25T07:36:08;0.10;99.90
66013;DHT22;52783;50.502;8.190;2023-01-25T07:38:34;0.10;99.90
66013;DHT22;52783;50.502;8.190;2023-01-25T07:41:01;0.20;99.90
66013;DHT22;52783;50.502;8.190;2023-01-25T07:43:27;0.40;99.90
66013;DHT22;52783;50.502;8.190;2023-01-25T07:45:59;0.40;99.90
66013;DHT22;52783;50.502;8.190;2023-01-25T07:48:25;0.30;99.90
66013;DHT22;52783;50.502;8.190;2023-01-25T07:50:50;0.30;99.90
66013;DHT22;52783;50.502;8.190;2023-01-25T07:53:39;0.20;99.90
66013;DHT22;52783;50.502;8.190;2023-01-25T07:56:05;0.30;99.90
66013;DHT22;52783;50.502;8.190;2023-01-25T07:58:31;0.30;99.90
66013;DHT22;52783;50.502;8.190;2023-01-25T08:00:57;0.30;99.90
66013;DHT22;52783;50.502;8.190;2023-01-25T08:03:22;0.20;99.90
66013;DHT22;52783;50.502;8.190;2023-01-25T08:05:48;0.20;99.90
66013;DHT22;52783;50.502;8.190;2023-01-25T08:08:14;0.20;99.90
66013;DHT22;52783;50.502;8.190;2023-01-25T08:10:40;0.30;99.90
66013;DHT22;52783;50.502;8.190;2023-01-25T08:13:05;0.30;99.90
66013;DHT22;52783;50.502;8.190;2023-01-25T08:15:31;0.30;99.90
66013;DHT22;52783;50.502;8.190;2023-01-25T08:18:00;0.20;99.90
66013;DHT22;52783;50.502;8.190;2023-01-25T08:20:26;0.10;99.90
66013;DHT22;52783;50.502;8.190;2023-01-25T08:22:51;0.20;99.90
66013;DHT22;52783;50.502;8.190;2023-01-25T08:25:17;0.20;99.90
66013;DHT22;52783;50.502;8.190;2023-01-25T08:27:43;0.20;99.90
66013;DHT22;52783;50.502;8.190;2023-01-25T08:30:09;0.30;99.90
66013;DHT22;52783;50.502;8.190;2023-01-25T08:32:36;0.30;99.90
66013;DHT22;52783;50.502;8.190;2023-01-25T08:35:02;0.30;99.90
66013;DHT22;52783;50.502;8.190;2023-01-25T08:37:27;0.40;99.90
66013;DHT22;52783;50.502;8.190;2023-01-25T08:39:57;0.20;99.90
66013;DHT22;52783;50.502;8.190;2023-01-25T08:42:24;0.40;99.90
66013;DHT22;52783;50.502;8.190;2023-01-25T08:44:50;0.50;99.90
66013;DHT22;52783;50.502;8.190;2023-01-25T08:47:15;0.50;99.90
66013;DHT22;52783;50.502;8.190;2023-01-25T08:49:41;0.50;99.90
66013;DHT22;52783;50.502;8.190;2023-01-25T08:52:06;0.50;99.90
66013;DHT22;52783;50.502;8.190;2023-01-25T08:54:32;0.70;99.90
66013;DHT22;52783;50.502;8.190;2023-01-25T08:56:57;0.50;99.90
66013;DHT22;52783;50.502;8.190;2023-01-25T08:59:23;0.50;99.90
66013;DHT22;52783;50.502;8.190;2023-01-25T09:01:49;0.70;99.90
66013;DHT22;52783;50.502;8.190;2023-01-25T09:04:14;0.80;99.90
66013;DHT22;52783;50.502;8.190;2023-01-25T09:06:40;1.20;99.90
66013;DHT22;52783;50.502;8.190;2023-01-25T09:09:05;0.80;99.90
66013;DHT22;52783;50.502;8.190;2023-01-25T09:11:33;0.80;99.90
66013;DHT22;52783;50.502;8.190;2023-01-25T09:13:59;0.80;99.90
66013;DHT22;52783;50.502;8.190;2023-01-25T09:16:25;0.60;99.90
66013;DHT22;52783;50.502;8.190;2023-01-25T09:18:55;0.70;99.90
66013;DHT22;52783;50.502;8.190;2023-01-25T09:21:21;0.60;99.90
66013;DHT22;52783;50.502;8.190;2023-01-25T09:23:48;0.80;99.90
66013;DHT22;52783;50.502;8.190;2023-01-25T09:26:15;0.50;99.90
66013;DHT22;52783;50.502;8.190;2023-01-25T09:28:42;0.40;99.90
66013;DHT22;52783;50.502;8.190;2023-01-25T09:31:10;0.20;99.90
66013;DHT22;52783;50.502;8.190;2023-01-25T09:33:37;0.40;99.90
66013;DHT22;52783;50.502;8.190;2023-01-25T09:36:04;0.50;99.90
66013;DHT22;52783;50.502;8.190;2023-01-25T09:38:30;0.50;99.90
66013;DHT22;52783;50.502;8.190;2023-01-25T09:46:50;0.50;99.90
66013;DHT22;52783;50.502;8.190;2023-01-25T09:52:29;0.40;99.90
66013;DHT22;52783;50.502;8.190;2023-01-25T09:54:57;0.40;99.90
66013;DHT22;52783;50.502;8.190;2023-01-25T09:57:30;0.50;99.90
66013;DHT22;52783;50.502;8.190;2023-01-25T09:59:57;0.50;99.90
66013;DHT22;52783;50.502;8.190;2023-01-25T10:05:24;0.50;99.90
66013;DHT22;52783;50.502;8.190;2023-01-25T10:07:56;0.70;99.90
66013;DHT22;52783;50.502;8.190;2023-01-25T10:10:36;0.60;99.90
66013;DHT22;52783;50.502;8.190;2023-01-25T10:13:02;0.70;99.90
66013;DHT22;52783;50.502;8.190;2023-01-25T10:15:36;0.80;99.90
66013;DHT22;52783;50.502;8.190;2023-01-25T10:20:57;0.80;99.90
66013;DHT22;52783;50.502;8.190;2023-01-25T10:26:18;0.70;99.90
66013;DHT22;52783;50.502;8.190;2023-01-25T10:31:48;0.50;99.90
66013;DHT22;52783;50.502;8.190;2023-01-25T10:34:22;0.50;99.90
66013;DHT22;52783;50.502;8.190;2023-01-25T10:36:57;0.60;99.90
66013;DHT22;52783;50.502;8.190;2023-01-25T10:39:25;0.70;99.90
66013;DHT22;52783;50.502;8.190;2023-01-25T10:41:59;0.80;99.90
66013;DHT22;52783;50.502;8.190;2023-01-25T10:44:25;0.90;99.90
66013;DHT22;52783;50.502;8.190;2023-01-25T10:47:28;1.00;99.90
66013;DHT22;52783;50.502;8.190;2023-01-25T10:49:57;1.00;99.90
66013;DHT22;52783;50.502;8.190;2023-01-25T10:52:28;1.00;99.90
66013;DHT22;52783;50.502;8.190;2023-01-25T10:55:14;1.00;99.90
66013;DHT22;52783;50.502;8.190;2023-01-25T10:57:49;0.80;99.90
66013;DHT22;52783;50.502;8.190;2023-01-25T11:02:54;0.90;99.90
66013;DHT22;52783;50.502;8.190;2023-01-25T11:07:55;1.00;99.90
66013;DHT22;52783;50.502;8.190;2023-01-25T11:10:29;1.20;99.90
66013;DHT22;52783;50.502;8.190;2023-01-25T11:13:31;1.10;99.90
66013;DHT22;52783;50.502;8.190;2023-01-25T11:18:30;1.00;99.90
66013;DHT22;52783;50.502;8.190;2023-01-25T11:21:21;1.10;99.90
66013;DHT22;52783;50.502;8.190;2023-01-25T11:26:34;1.10;99.90
66013;DHT22;52783;50.502;8.190;2023-01-25T11:29:20;1.10;99.90
66013;DHT22;52783;50.502;8.190;2023-01-25T11:31:50;1.00;99.90
66013;DHT22;52783;50.502;8.190;2023-01-25T11:34:26;0.90;99.90
66013;DHT22;52783;50.502;8.190;2023-01-25T11:39:45;1.10;99.90
66013;DHT22;52783;50.502;8.190;2023-01-25T11:50:42;0.90;99.90
66013;DHT22;52783;50.502;8.190;2023-01-25T11:56:14;0.90;99.90
66013;DHT22;52783;50.502;8.190;2023-01-25T12:13:02;0.90;99.90
66013;DHT22;52783;50.502;8.190;2023-01-25T12:30:41;1.00;99.90
66013;DHT22;52783;50.502;8.190;2023-01-25T12:36:19;0.90;99.90
66013;DHT22;52783;50.502;8.190;2023-01-25T12:44:23;0.70;99.90
66013;DHT22;52783;50.502;8.190;2023-01-25T12:52:37;0.80;99.90
66013;DHT22;52783;50.502;8.190;2023-01-25T12:55:11;1.00;99.90
66013;DHT22;52783;50.502;8.190;2023-01-25T12:58:00;1.10;99.90
66013;DHT22;52783;50.502;8.190;2023-01-25T13:00:42;1.10;99.90
66013;DHT22;52783;50.502;8.190;2023-01-25T13:03:52;1.10;99.90
66013;DHT22;52783;50.502;8.190;2023-01-25T13:06:24;1.20;99.90
66013;DHT22;52783;50.502;8.190;2023-01-25T13:11:45;1.00;99.90
66013;DHT22;52783;50.502;8.190;2023-01-25T13:17:11;1.00;99.90
66013;DHT22;52783;50.502;8.190;2023-01-25T13:22:02;1.00;99.90
66013;DHT22;52783;50.502;8.190;2023-01-25T13:24:30;0.80;99.90
66013;DHT22;52783;50.502;8.190;2023-01-25T13:27:02;0.80;99.90
66013;DHT22;52783;50.502;8.190;2023-01-25T13:32:02;0.90;99.90
66013;DHT22;52783;50.502;8.190;2023-01-25T13:37:26;0.90;99.90
66013;DHT22;52783;50.502;8.190;2023-01-25T13:39:55;0.80;99.90
66013;DHT22;52783;50.502;8.190;2023-01-25T13:42:27;0.70;99.90
66013;DHT22;52783;50.502;8.190;2023-01-25T13:45:15;0.90;99.90
66013;DHT22;52783;50.502;8.190;2023-01-25T13:47:43;1.00;99.90
66013;DHT22;52783;50.502;8.190;2023-01-25T13:50:19;1.00;99.90
66013;DHT22;52783;50.502;8.190;2023-01-25T13:55:38;0.90;99.90
66013;DHT22;52783;50.502;8.190;2023-01-25T13:58:09;0.70;99.90
66013;DHT22;52783;50.502;8.190;2023-01-25T14:00:35;0.70;99.90
66013;DHT22;52783;50.502;8.190;2023-01-25T14:03:04;0.70;99.90
66013;DHT22;52783;50.502;8.190;2023-01-25T14:05:30;0.70;99.90
66013;DHT22;52783;50.502;8.190;2023-01-25T14:07:56;0.80;99.90
66013;DHT22;52783;50.502;8.190;2023-01-25T14:10:24;0.80;99.90
66013;DHT22;52783;50.502;8.190;2023-01-25T14:12:52;0.70;99.90
66013;DHT22;52783;50.502;8.190;2023-01-25T14:18:16;0.50;99.90
66013;DHT22;52783;50.502;8.190;2023-01-25T14:20:45;0.50;99.90
66013;DHT22;52783;50.502;8.190;2023-01-25T14:23:28;0.40;99.90
66013;DHT22;52783;50.502;8.190;2023-01-25T14:25:55;0.50;99.90
66013;DHT22;52783;50.502;8.190;2023-01-25T14:28:24;0.60;99.90
66013;DHT22;52783;50.502;8.190;2023-01-25T14:30:51;0.50;99.90
66013;DHT22;52783;50.502;8.190;2023-01-25T14:35:47;0.30;99.90
66013;DHT22;52783;50.502;8.190;2023-01-25T14:38:39;0.50;99.90
66013;DHT22;52783;50.502;8.190;2023-01-25T14:41:07;0.50;99.90
66013;DHT22;52783;50.502;8.190;2023-01-25T14:43:35;0.40;99.90
66013;DHT22;52783;50.502;8.190;2023-01-25T14:46:23;0.60;99.90
66013;DHT22;52783;50.502;8.190;2023-01-25T14:48:49;0.60;99.90
66013;DHT22;52783;50.502;8.190;2023-01-25T14:51:25;0.50;99.90
66013;DHT22;52783;50.502;8.190;2023-01-25T14:54:01;0.70;99.90
66013;DHT22;52783;50.502;8.190;2023-01-25T14:56:45;0.70;99.90
66013;DHT22;52783;50.502;8.190;2023-01-25T15:01:53;0.70;99.90
66013;DHT22;52783;50.502;8.190;2023-01-25T15:04:19;0.70;99.90
66013;DHT22;52783;50.502;8.190;2023-01-25T15:06:53;0.80;99.90
66013;DHT22;52783;50.502;8.190;2023-01-25T15:09:39;0.80;99.90
66013;DHT22;52783;50.502;8.190;2023-01-25T15:14:52;0.60;99.90
66013;DHT22;52783;50.502;8.190;2023-01-25T15:17:38;0.70;99.90
66013;DHT22;52783;50.502;8.190;2023-01-25T15:20:05;0.60;99.90
66013;DHT22;52783;50.502;8.190;2023-01-25T15:22:31;0.70;99.90
66013;DHT22;52783;50.502;8.190;2023-01-25T15:24:56;0.60;99.90
66013;DHT22;52783;50.502;8.190;2023-01-25T15:27:22;0.60;99.90
66013;DHT22;52783;50.502;8.190;2023-01-25T15:29:48;0.70;99.90
66013;DHT22;52783;50.502;8.190;2023-01-25T15:32:19;0.80;99.90
66013;DHT22;52783;50.502;8.190;2023-01-25T15:34:45;0.80;99.90
66013;DHT22;52783;50.502;8.190;2023-01-25T15:37:11;0.70;99.90
66013;DHT22;52783;50.502;8.190;2023-01-25T15:39:36;0.80;99.90
66013;DHT22;52783;50.502;8.190;2023-01-25T15:42:03;0.70;99.90
66013;DHT22;52783;50.502;8.190;2023-01-25T15:44:29;0.70;99.90
66013;DHT22;52783;50.502;8.190;2023-01-25T15:46:54;0.50;99.90
66013;DHT22;52783;50.502;8.190;2023-01-25T15:49:24;0.60;99.90
66013;DHT22;52783;50.502;8.190;2023-01-25T15:51:51;0.50;99.90
66013;DHT22;52783;50.502;8.190;2023-01-25T15:54:16;0.40;99.90
66013;DHT22;52783;50.502;8.190;2023-01-25T15:56:42;0.40;99.90
66013;DHT22;52783;50.502;8.190;2023-01-25T15:59:16;0.40;99.90
66013;DHT22;52783;50.502;8.190;2023-01-25T16:01:41;0.40;99.90
66013;DHT22;52783;50.502;8.190;2023-01-25T16:04:09;0.50;99.90
66013;DHT22;52783;50.502;8.190;2023-01-25T16:09:23;0.20;99.90
66013;DHT22;52783;50.502;8.190;2023-01-25T16:11:54;0.30;99.90
66013;DHT22;52783;50.502;8.190;2023-01-25T16:14:20;0.30;99.90
66013;DHT22;52783;50.502;8.190;2023-01-25T16:16:49;0.30;99.90
66013;DHT22;52783;50.502;8.190;2023-01-25T16:19:20;0.40;99.90
66013;DHT22;52783;50.502;8.190;2023-01-25T16:21:46;0.50;99.90
66013;DHT22;52783;50.502;8.190;2023-01-25T16:24:12;0.50;99.90
66013;DHT22;52783;50.502;8.190;2023-01-25T16:26:42;0.40;99.90
66013;DHT22;52783;50.502;8.190;2023-01-25T16:29:10;0.50;99.90
66013;DHT22;52783;50.502;8.190;2023-01-25T16:31:35;0.50;99.90
66013;DHT22;52783;50.502;8.190;2023-01-25T16:34:01;0.60;99.90
66013;DHT22;52783;50.502;8.190;2023-01-25T16:36:27;0.60;99.90
66013;DHT22;52783;50.502;8.190;2023-01-25T16:38:53;0.70;99.90
66013;DHT22;52783;50.502;8.190;2023-01-25T16:41:19;0.70;99.90
66013;DHT22;52783;50.502;8.190;2023-01-25T16:43:46;0.70;99.90
66013;DHT22;52783;50.502;8.190;2023-01-25T16:46:17;0.70;99.90
66013;DHT22;52783;50.502;8.190;2023-01-25T16:48:45;0.70;99.90
66013;DHT22;52783;50.502;8.190;2023-01-25T16:51:22;0.70;99.90
66013;DHT22;52783;50.502;8.190;2023-01-25T16:53:50;0.60;99.90
66013;DHT22;52783;50.502;8.190;2023-01-25T16:56:26;0.50;99.90
66013;DHT22;52783;50.502;8.190;2023-01-25T16:58:54;0.60;99.90
66013;DHT22;52783;50.502;8.190;2023-01-25T17:01:21;0.60;99.90
66013;DHT22;52783;50.502;8.190;2023-01-25T17:03:47;0.60;99.90
66013;DHT22;52783;50.502;8.190;2023-01-25T17:06:18;0.70;99.90
66013;DHT22;52783;50.502;8.190;2023-01-25T17:08:45;0.50;99.90
66013;DHT22;52783;50.502;8.190;2023-01-25T17:11:11;0.50;99.90
66013;DHT22;52783;50.502;8.190;2023-01-25T17:13:36;0.50;99.90
66013;DHT22;52783;50.502;8.190;2023-01-25T17:16:02;0.60;99.90
66013;DHT22;52783;50.502;8.190;2023-01-25T17:18:28;0.60;99.90
66013;DHT22;52783;50.502;8.190;2023-01-25T17:21:02;0.60;99.90
66013;DHT22;52783;50.502;8.190;2023-01-25T17:23:32;0.50;99.90
66013;DHT22;52783;50.502;8.190;2023-01-25T17:26:04;0.30;99.90
66013;DHT22;52783;50.502;8.190;2023-01-25T17:28:31;0.20;99.90
66013;DHT22;52783;50.502;8.190;2023-01-25T17:30:56;0.20;99.90
66013;DHT22;52783;50.502;8.190;2023-01-25T17:33:22;0.10;99.90
66013;DHT22;52783;50.502;8.190;2023-01-25T17:35:47;0.30;99.90
66013;DHT22;52783;50.502;8.190;2023-01-25T17:38:13;0.30;99.90
66013;DHT22;52783;50.502;8.190;2023-01-25T17:40:39;0.40;99.90
66013;DHT22;52783;50.502;8.190;2023-01-25T17:43:05;0.30;99.90
66013;DHT22;52783;50.502;8.190;2023-01-25T17:45:30;0.30;99.90
66013;DHT22;52783;50.502;8.190;2023-01-25T17:48:03;0.40;99.90
66013;DHT22;52783;50.502;8.190;2023-01-25T17:50:29;0.30;99.90
66013;DHT22;52783;50.502;8.190;2023-01-25T17:52:55;0.30;99.90
66013;DHT22;52783;50.502;8.190;2023-01-25T17:55:20;0.40;99.90
66013;DHT22;52783;50.502;8.190;2023-01-25T17:57:46;0.40;99.90
66013;DHT22;52783;50.502;8.190;2023-01-25T18:00:12;0.30;99.90
66013;DHT22;52783;50.502;8.190;2023-01-25T18:02:42;0.40;99.90
66013;DHT22;52783;50.502;8.190;2023-01-25T18:05:08;0.40;99.90
66013;DHT22;52783;50.502;8.190;2023-01-25T18:07:33;0.50;99.90